createdAt,value
2022-11-16T00:02:07.137Z,13.10
2022-11-16T00:04:34.039Z,12.90
2022-11-16T00:07:02.833Z,13.10
2022-11-16T00:09:32.010Z,12.80
2022-11-16T00:12:01.595Z,13.00
2022-11-16T00:14:32.618Z,13.30
2022-11-16T00:17:00.178Z,13.00
2022-11-16T00:19:27.560Z,12.80
2022-11-16T00:21:54.840Z,12.80
2022-11-16T00:24:22.738Z,12.90
2022-11-16T00:26:50.196Z,13.20
2022-11-16T00:29:19.527Z,13.00
2022-11-16T00:31:47.178Z,12.90
2022-11-16T00:34:14.485Z,13.30
2022-11-16T00:36:41.498Z,13.30
2022-11-16T00:39:11.722Z,13.30
2022-11-16T00:41:43.602Z,13.20
2022-11-16T00:44:10.975Z,13.20
2022-11-16T00:46:38.359Z,13.00
2022-11-16T00:49:05.846Z,13.10
2022-11-16T00:51:35.361Z,13.20
2022-11-16T00:54:02.637Z,13.10
2022-11-16T00:56:29.357Z,12.80
2022-11-16T00:58:56.152Z,13.20
2022-11-16T01:01:22.925Z,13.20
2022-11-16T01:03:49.639Z,13.10
2022-11-16T01:06:16.991Z,12.70
2022-11-16T01:08:44.669Z,12.70
2022-11-16T01:11:33.041Z,13.10
2022-11-16T01:14:05.901Z,13.20
2022-11-16T01:16:32.768Z,13.10
2022-11-16T01:18:59.581Z,13.30
2022-11-16T01:21:26.765Z,13.30
2022-11-16T01:23:55.732Z,13.30
2022-11-16T01:26:22.902Z,13.20
2022-11-16T01:28:49.574Z,13.20
2022-11-16T01:31:16.359Z,13.10
2022-11-16T01:33:43.028Z,13.30
2022-11-16T01:36:15.165Z,13.40
2022-11-16T01:38:47.059Z,13.30
2022-11-16T01:41:19.185Z,13.40
2022-11-16T01:44:00.821Z,13.40
2022-11-16T01:46:28.663Z,13.40
2022-11-16T01:49:07.553Z,13.30
2022-11-16T01:51:35.170Z,13.50
2022-11-16T01:54:03.728Z,13.50
2022-11-16T01:56:32.803Z,13.40
2022-11-16T01:58:59.867Z,13.40
2022-11-16T02:01:26.621Z,13.40
2022-11-16T02:03:53.357Z,13.60
2022-11-16T02:06:32.454Z,13.50
2022-11-16T02:09:55.979Z,13.60
2022-11-16T02:12:25.676Z,13.50
2022-11-16T02:15:04.486Z,13.40
2022-11-16T02:17:52.955Z,13.40
2022-11-16T02:20:49.049Z,13.30
2022-11-16T02:23:46.790Z,13.30
2022-11-16T02:26:31.655Z,13.50
2022-11-16T02:29:20.438Z,13.50
2022-11-16T02:31:54.227Z,13.60
2022-11-16T02:34:22.864Z,13.40
2022-11-16T02:36:58.130Z,13.40
2022-11-16T02:39:29.367Z,13.60
2022-11-16T02:41:57.657Z,13.50
2022-11-16T02:44:37.648Z,13.70
2022-11-16T02:47:10.909Z,13.70
2022-11-16T02:49:43.216Z,13.80
2022-11-16T02:52:13.029Z,13.50
2022-11-16T02:54:39.692Z,13.60
2022-11-16T02:57:06.322Z,13.80
2022-11-16T02:59:39.281Z,13.70
2022-11-16T03:02:24.858Z,13.70
2022-11-16T03:05:20.434Z,13.90
2022-11-16T03:07:55.211Z,13.80
2022-11-16T03:10:41.469Z,13.70
2022-11-16T03:13:11.596Z,13.80
2022-11-16T03:15:41.219Z,13.50
2022-11-16T03:18:08.963Z,13.80
2022-11-16T03:20:37.881Z,13.70
2022-11-16T03:23:10.286Z,13.80
2022-11-16T03:25:47.359Z,13.80
2022-11-16T03:28:23.562Z,13.80
2022-11-16T03:30:55.082Z,13.90
2022-11-16T03:33:27.641Z,13.90
2022-11-16T03:36:11.834Z,13.90
2022-11-16T03:38:41.297Z,14.00
2022-11-16T03:41:10.324Z,14.00
2022-11-16T03:43:39.140Z,13.80
2022-11-16T03:46:06.366Z,13.70
2022-11-16T03:48:38.121Z,13.90
2022-11-16T03:51:06.070Z,13.80
2022-11-16T03:53:32.827Z,13.60
2022-11-16T03:55:59.478Z,13.70
2022-11-16T03:58:26.308Z,13.80
2022-11-16T04:00:53.557Z,13.90
2022-11-16T04:03:20.931Z,13.90
2022-11-16T04:06:14.252Z,14.00
2022-11-16T04:08:59.671Z,13.90
2022-11-16T04:11:45.032Z,14.00
2022-11-16T04:14:35.607Z,14.00
2022-11-16T04:17:20.825Z,13.90
2022-11-16T04:20:06.269Z,13.80
2022-11-16T04:23:18.725Z,13.80
2022-11-16T04:25:49.169Z,13.90
2022-11-16T04:28:16.755Z,14.00
2022-11-16T04:31:11.347Z,14.00
2022-11-16T04:34:03.498Z,14.00
2022-11-16T04:36:49.105Z,14.10
2022-11-16T04:39:15.798Z,14.10
2022-11-16T04:42:00.957Z,14.10
2022-11-16T04:44:47.662Z,14.00
2022-11-16T04:47:14.338Z,14.00
2022-11-16T04:49:40.997Z,14.00
2022-11-16T04:52:08.881Z,14.00
2022-11-16T04:54:35.562Z,14.10
2022-11-16T04:57:02.492Z,14.00
2022-11-16T04:59:29.252Z,14.10
2022-11-16T05:02:08.241Z,14.10
2022-11-16T05:04:39.284Z,14.10
2022-11-16T05:07:11.248Z,14.10
2022-11-16T05:09:46.536Z,14.20
2022-11-16T05:12:17.722Z,14.20
2022-11-16T05:14:44.858Z,14.20
2022-11-16T05:17:12.167Z,14.10
2022-11-16T05:19:57.665Z,13.90
2022-11-16T05:22:24.834Z,14.00
2022-11-16T05:24:51.779Z,14.10
2022-11-16T05:27:19.860Z,14.10
2022-11-16T05:29:46.687Z,14.10
2022-11-16T05:32:13.621Z,14.10
2022-11-16T05:34:40.374Z,14.00
2022-11-16T05:37:07.524Z,14.00
2022-11-16T05:39:34.660Z,14.00
2022-11-16T05:42:01.475Z,13.90
2022-11-16T05:44:28.537Z,13.90
2022-11-16T05:46:56.081Z,13.70
2022-11-16T05:49:23.635Z,13.70
2022-11-16T05:51:50.673Z,13.80
2022-11-16T05:54:20.025Z,13.70
2022-11-16T05:56:48.597Z,13.70
2022-11-16T05:59:16.975Z,13.80
2022-11-16T06:01:47.503Z,14.20
2022-11-16T06:04:14.654Z,14.30
2022-11-16T06:06:51.921Z,14.10
2022-11-16T06:09:18.914Z,14.20
2022-11-16T06:11:45.592Z,14.20
2022-11-16T06:14:12.361Z,14.20
2022-11-16T06:16:40.124Z,14.20
2022-11-16T06:19:06.886Z,13.90
2022-11-16T06:21:33.727Z,13.80
2022-11-16T06:24:01.484Z,13.40
2022-11-16T06:26:28.383Z,13.70
2022-11-16T06:28:55.173Z,13.70
2022-11-16T06:31:24.887Z,13.80
2022-11-16T06:33:51.617Z,13.60
2022-11-16T06:36:18.267Z,13.50
2022-11-16T06:38:45.088Z,13.70
2022-11-16T06:41:11.848Z,13.40
2022-11-16T06:43:38.556Z,12.10
2022-11-16T06:46:05.530Z,11.60
2022-11-16T06:48:33.804Z,11.70
2022-11-16T06:51:00.851Z,12.30
2022-11-16T06:53:29.449Z,11.70
2022-11-16T06:56:01.267Z,11.50
2022-11-16T06:58:30.691Z,11.40
2022-11-16T07:00:58.527Z,11.80
2022-11-16T07:03:25.231Z,11.80
2022-11-16T07:05:51.919Z,11.70
2022-11-16T07:08:18.602Z,11.60
2022-11-16T07:10:45.375Z,11.50
2022-11-16T07:13:12.087Z,11.60
2022-11-16T07:15:38.788Z,11.50
2022-11-16T07:18:08.293Z,11.50
2022-11-16T07:20:37.312Z,11.50
2022-11-16T07:23:07.077Z,11.60
2022-11-16T07:25:35.665Z,11.80
2022-11-16T07:28:02.424Z,11.70
2022-11-16T07:30:29.102Z,11.50
2022-11-16T07:32:59.678Z,11.60
2022-11-16T07:35:26.517Z,11.50
2022-11-16T07:37:53.281Z,11.60
2022-11-16T07:40:20.450Z,11.40
2022-11-16T07:42:47.376Z,11.70
2022-11-16T07:45:14.420Z,12.10
2022-11-16T07:47:41.224Z,11.60
2022-11-16T07:50:08.700Z,11.60
2022-11-16T07:52:35.385Z,11.70
2022-11-16T07:55:02.064Z,11.70
2022-11-16T07:57:28.873Z,12.00
2022-11-16T07:59:55.547Z,11.80
2022-11-16T08:02:22.339Z,12.30
2022-11-16T08:04:49.058Z,12.30
2022-11-16T08:07:16.549Z,11.90
2022-11-16T08:09:43.579Z,11.80
2022-11-16T08:12:10.297Z,12.00
2022-11-16T08:14:37.042Z,11.90
2022-11-16T08:17:04.963Z,11.90
2022-11-16T08:19:31.625Z,12.10
2022-11-16T08:21:58.332Z,12.10
2022-11-16T08:24:25.252Z,12.00
2022-11-16T08:26:51.987Z,11.60
2022-11-16T08:29:18.756Z,12.10
2022-11-16T08:31:45.666Z,12.30
2022-11-16T08:34:12.383Z,12.20
2022-11-16T08:36:39.068Z,12.10
2022-11-16T08:39:05.738Z,12.50
2022-11-16T08:41:32.722Z,12.40
2022-11-16T08:44:00.490Z,12.30
2022-11-16T08:46:27.824Z,12.40
2022-11-16T08:48:58.270Z,12.00
2022-11-16T08:51:25.697Z,11.70
2022-11-16T08:53:57.487Z,12.50
2022-11-16T08:56:27.121Z,12.80
2022-11-16T08:58:58.358Z,12.30
2022-11-16T09:01:27.689Z,12.60
2022-11-16T09:03:55.119Z,12.30
2022-11-16T09:06:23.019Z,12.30
2022-11-16T09:08:50.114Z,12.30
2022-11-16T09:11:19.013Z,12.50
2022-11-16T09:13:46.863Z,11.90
2022-11-16T09:16:16.994Z,12.10
2022-11-16T09:18:46.319Z,12.40
2022-11-16T09:21:23.140Z,12.00
2022-11-16T09:23:50.493Z,12.50
2022-11-16T09:26:20.873Z,12.20
2022-11-16T09:28:58.235Z,11.90
2022-11-16T09:31:27.569Z,12.00
2022-11-16T09:33:56.124Z,12.10
2022-11-16T09:36:23.066Z,11.80
2022-11-16T09:41:54.880Z,11.80
2022-11-16T09:44:30.664Z,11.60
2022-11-16T09:46:59.386Z,11.50
2022-11-16T09:49:30.989Z,11.90
2022-11-16T09:52:02.711Z,11.70
2022-11-16T09:54:34.110Z,11.90
2022-11-16T09:57:12.046Z,13.20
2022-11-16T09:59:44.311Z,12.10
2022-11-16T10:02:25.272Z,12.10
2022-11-16T10:05:12.170Z,12.80
2022-11-16T10:07:48.416Z,12.20
2022-11-16T10:10:17.061Z,12.20
2022-11-16T10:13:00.514Z,12.10
2022-11-16T10:15:53.100Z,12.10
2022-11-16T10:18:43.591Z,12.50
2022-11-16T10:21:22.263Z,12.30
2022-11-16T10:24:23.932Z,12.40
2022-11-16T10:26:59.516Z,12.50
2022-11-16T10:29:26.309Z,12.30
2022-11-16T10:32:28.861Z,12.60
2022-11-16T10:35:10.754Z,12.80
2022-11-16T10:37:46.644Z,12.70
2022-11-16T10:40:21.145Z,13.50
2022-11-16T10:43:04.229Z,12.70
2022-11-16T10:45:43.323Z,12.60
2022-11-16T10:48:16.046Z,13.10
2022-11-16T10:50:46.773Z,13.30
2022-11-16T10:53:27.447Z,13.50
2022-11-16T10:56:06.061Z,13.40
2022-11-16T10:58:59.267Z,12.50
2022-11-16T11:01:36.170Z,13.40
2022-11-16T11:04:27.307Z,12.60
2022-11-16T11:06:56.836Z,12.70
2022-11-16T11:09:36.123Z,12.50
2022-11-16T11:12:32.098Z,12.20
2022-11-16T11:15:26.890Z,12.20
2022-11-16T11:18:29.091Z,12.50
2022-11-16T11:21:05.485Z,12.60
2022-11-16T11:23:42.636Z,12.90
2022-11-16T11:26:39.859Z,12.40
2022-11-16T11:29:28.595Z,12.20
2022-11-16T11:32:06.572Z,12.20
2022-11-16T11:34:41.705Z,11.90
2022-11-16T11:37:16.063Z,12.10
2022-11-16T11:39:42.839Z,12.50
2022-11-16T11:42:12.520Z,12.20
2022-11-16T11:45:02.280Z,12.00
2022-11-16T11:47:57.979Z,12.00
2022-11-16T11:50:39.314Z,12.30
2022-11-16T11:53:34.154Z,12.30
2022-11-16T11:56:01.228Z,12.30
2022-11-16T11:58:35.546Z,12.50
2022-11-16T12:01:26.844Z,12.40
2022-11-16T12:04:28.289Z,12.80
2022-11-16T12:07:04.167Z,12.40
2022-11-16T12:09:59.726Z,12.60
2022-11-16T12:12:39.345Z,13.10
2022-11-16T12:15:43.039Z,12.80
2022-11-16T12:18:41.553Z,12.50
2022-11-16T12:21:22.656Z,12.70
2022-11-16T12:24:24.409Z,12.50
2022-11-16T12:27:10.003Z,13.40
2022-11-16T12:29:58.175Z,13.30
2022-11-16T12:32:51.412Z,13.30
2022-11-16T12:35:42.270Z,13.00
2022-11-16T12:38:20.536Z,13.20
2022-11-16T12:41:08.645Z,12.80
2022-11-16T12:43:59.313Z,12.40
2022-11-16T12:46:50.654Z,12.40
2022-11-16T12:49:53.795Z,13.10
2022-11-16T12:52:31.550Z,12.80
2022-11-16T12:55:28.501Z,12.60
2022-11-16T12:58:17.728Z,13.10
2022-11-16T13:00:55.785Z,13.20
2022-11-16T13:03:37.832Z,13.30
2022-11-16T13:06:12.376Z,12.80
2022-11-16T13:09:06.696Z,12.90
2022-11-16T13:11:41.478Z,12.60
2022-11-16T13:14:16.599Z,13.30
2022-11-16T13:16:45.560Z,12.90
2022-11-16T13:19:14.590Z,12.50
2022-11-16T13:22:00.021Z,14.00
2022-11-16T13:24:40.625Z,13.00
2022-11-16T13:27:10.128Z,12.80
2022-11-16T13:29:59.473Z,12.90
2022-11-16T13:32:36.775Z,12.30
2022-11-16T13:35:12.824Z,13.10
2022-11-16T13:37:39.590Z,13.20
2022-11-16T13:40:06.280Z,13.30
2022-11-16T13:42:35.768Z,13.00
2022-11-16T13:45:07.102Z,12.70
2022-11-16T13:47:34.851Z,13.00
2022-11-16T13:50:04.487Z,12.70
2022-11-16T13:55:46.268Z,12.90
2022-11-16T13:58:21.363Z,13.10
2022-11-16T14:01:07.420Z,12.80
2022-11-16T14:03:39.608Z,12.70
2022-11-16T14:06:24.483Z,13.40
2022-11-16T14:08:57.527Z,12.50
2022-11-16T14:11:31.371Z,12.60
2022-11-16T14:14:01.493Z,12.40
2022-11-16T14:16:29.137Z,12.60
2022-11-16T14:18:58.417Z,12.40
2022-11-16T14:22:13.501Z,12.60
2022-11-16T14:24:57.950Z,12.40
2022-11-16T14:28:03.572Z,12.80
2022-11-16T14:30:47.031Z,12.90
2022-11-16T14:33:28.020Z,12.90
2022-11-16T14:35:54.790Z,13.10
2022-11-16T14:38:37.489Z,12.70
2022-11-16T14:41:22.715Z,12.90
2022-11-16T14:43:53.940Z,12.60
2022-11-16T14:46:26.059Z,12.80
2022-11-16T14:48:55.922Z,12.90
2022-11-16T14:51:35.309Z,12.60
2022-11-16T14:54:20.423Z,12.60
2022-11-16T14:57:01.785Z,12.60
2022-11-16T14:59:29.686Z,12.40
2022-11-16T15:01:56.842Z,12.60
2022-11-16T15:04:26.465Z,12.50
2022-11-16T15:07:03.721Z,12.60
2022-11-16T15:09:39.140Z,12.60
2022-11-16T15:12:31.715Z,12.60
2022-11-16T15:15:03.317Z,12.80
2022-11-16T15:17:33.190Z,12.60
2022-11-16T15:20:13.268Z,12.60
2022-11-16T15:22:46.019Z,12.60
2022-11-16T15:25:30.578Z,12.70
2022-11-16T15:28:00.241Z,12.60
2022-11-16T15:30:34.155Z,12.80
2022-11-16T15:33:15.845Z,12.80
2022-11-16T15:35:42.550Z,12.80
2022-11-16T15:38:27.276Z,12.90
2022-11-16T15:40:59.769Z,12.90
2022-11-16T15:43:45.452Z,13.20
2022-11-16T15:46:29.063Z,13.00
2022-11-16T15:48:56.744Z,12.90
2022-11-16T15:51:23.668Z,13.10
2022-11-16T15:53:52.789Z,13.20
2022-11-16T15:56:25.667Z,13.30
2022-11-16T15:58:57.848Z,13.40
2022-11-16T16:01:25.664Z,12.70
2022-11-16T16:04:06.793Z,11.70
2022-11-16T16:06:54.682Z,11.40
2022-11-16T16:09:26.214Z,11.00
2022-11-16T16:11:54.650Z,10.60
2022-11-16T16:14:27.676Z,10.80
2022-11-16T16:16:59.199Z,11.00
2022-11-16T16:19:35.652Z,10.90
2022-11-16T16:22:04.482Z,11.10
2022-11-16T16:24:46.900Z,10.90
2022-11-16T16:27:13.555Z,11.00
2022-11-16T16:29:40.470Z,10.90
2022-11-16T16:32:12.400Z,10.90
2022-11-16T16:34:42.175Z,10.80
2022-11-16T16:37:11.780Z,10.90
2022-11-16T16:39:39.901Z,10.60
2022-11-16T16:42:12.771Z,10.10
2022-11-16T16:44:40.292Z,9.90
2022-11-16T16:47:07.026Z,9.80
2022-11-16T16:49:33.769Z,9.80
2022-11-16T16:52:04.099Z,9.80
2022-11-16T16:54:30.982Z,9.80
2022-11-16T16:56:58.052Z,9.60
2022-11-16T16:59:25.319Z,9.60
2022-11-16T17:01:52.097Z,9.60
2022-11-16T17:04:19.435Z,9.60
2022-11-16T17:06:48.069Z,10.20
2022-11-16T17:09:14.770Z,10.40
2022-11-16T17:11:41.566Z,10.30
2022-11-16T17:14:08.456Z,10.20
2022-11-16T17:16:36.234Z,10.00
2022-11-16T17:19:03.692Z,10.10
2022-11-16T17:21:31.023Z,10.40
2022-11-16T17:23:58.059Z,10.10
2022-11-16T17:26:29.193Z,10.00
2022-11-16T17:28:57.065Z,9.80
2022-11-16T17:31:25.083Z,9.90
2022-11-16T17:33:52.389Z,10.00
2022-11-16T17:36:19.959Z,10.10
2022-11-16T17:38:46.655Z,10.10
2022-11-16T17:41:21.527Z,9.90
2022-11-16T17:43:51.655Z,10.00
2022-11-16T17:46:21.197Z,9.90
2022-11-16T17:48:48.515Z,9.70
2022-11-16T17:51:18.401Z,9.80
2022-11-16T17:53:45.345Z,9.80
2022-11-16T17:56:14.492Z,9.80
2022-11-16T17:58:41.789Z,9.60
2022-11-16T18:01:08.873Z,9.50
2022-11-16T18:03:36.893Z,9.40
2022-11-16T18:06:06.533Z,9.50
2022-11-16T18:09:03.199Z,9.60
2022-11-16T18:11:31.275Z,9.60
2022-11-16T18:14:05.564Z,9.70
2022-11-16T18:16:33.461Z,9.80
2022-11-16T18:19:03.756Z,10.20
2022-11-16T18:21:30.831Z,10.30
2022-11-16T18:24:00.885Z,10.20
2022-11-16T18:26:27.633Z,10.60
2022-11-16T18:28:54.379Z,10.40
2022-11-16T18:31:23.260Z,10.40
2022-11-16T18:33:50.169Z,10.40
2022-11-16T18:36:18.347Z,10.30
2022-11-16T18:38:45.837Z,10.50
2022-11-16T18:41:13.487Z,10.30
2022-11-16T18:43:40.851Z,10.20
2022-11-16T18:46:08.031Z,10.50
2022-11-16T18:48:36.242Z,10.80
2022-11-16T18:51:04.574Z,10.80
2022-11-16T18:53:32.959Z,10.70
2022-11-16T18:55:59.978Z,10.70
2022-11-16T19:01:18.011Z,10.30
2022-11-16T19:03:44.882Z,10.40
2022-11-16T19:06:12.307Z,10.40
2022-11-16T19:08:41.232Z,10.60
2022-11-16T19:11:13.034Z,11.00
2022-11-16T19:13:41.048Z,10.70
2022-11-16T19:16:09.638Z,10.50
2022-11-16T19:18:37.150Z,10.30
2022-11-16T19:21:09.870Z,10.50
2022-11-16T19:23:38.688Z,10.60
2022-11-16T19:26:06.247Z,10.60
2022-11-16T19:28:37.211Z,10.40
2022-11-16T19:31:12.126Z,10.90
2022-11-16T19:33:39.203Z,10.90
2022-11-16T19:36:11.391Z,11.00
2022-11-16T19:38:38.822Z,11.00
2022-11-16T19:41:06.686Z,11.10
2022-11-16T19:43:35.097Z,10.50
2022-11-16T19:46:07.312Z,10.60
2022-11-16T19:48:34.230Z,10.50
2022-11-16T19:51:09.114Z,10.20
2022-11-16T19:53:36.786Z,10.70
2022-11-16T19:56:04.911Z,10.40
2022-11-16T19:58:32.971Z,10.30
2022-11-16T20:01:07.404Z,10.50
2022-11-16T20:03:34.901Z,10.50
2022-11-16T20:06:11.145Z,10.50
2022-11-16T20:08:39.861Z,10.60
2022-11-16T20:11:26.878Z,10.60
2022-11-16T20:13:55.169Z,10.30
2022-11-16T20:16:26.526Z,10.40
2022-11-16T20:18:54.739Z,10.80
2022-11-16T20:21:26.677Z,10.50
2022-11-16T20:23:53.924Z,10.80
2022-11-16T20:26:23.477Z,10.40
2022-11-16T20:28:52.436Z,10.20
2022-11-16T20:31:24.410Z,10.70
2022-11-16T20:33:58.867Z,10.30
2022-11-16T20:36:27.852Z,10.50
2022-11-16T20:38:55.830Z,10.50
2022-11-16T20:41:24.659Z,10.80
2022-11-16T20:43:53.824Z,10.90
2022-11-16T20:46:22.405Z,11.30
2022-11-16T20:48:49.441Z,10.90
2022-11-16T20:51:18.316Z,10.70
2022-11-16T20:53:46.534Z,10.90
2022-11-16T20:56:14.247Z,10.90
2022-11-16T20:58:41.351Z,10.80
2022-11-16T21:01:14.606Z,11.30
2022-11-16T21:03:42.500Z,11.20
2022-11-16T21:06:11.667Z,11.10
2022-11-16T21:08:39.678Z,11.10
2022-11-16T21:11:18.004Z,11.20
2022-11-16T21:14:05.324Z,10.70
2022-11-16T21:16:33.154Z,11.00
2022-11-16T21:19:00.441Z,11.20
2022-11-16T21:21:27.161Z,10.60
2022-11-16T21:23:54.990Z,11.00
2022-11-16T21:26:30.521Z,11.10
2022-11-16T21:28:59.379Z,11.20
2022-11-16T21:31:29.667Z,10.60
2022-11-16T21:33:57.121Z,11.00
2022-11-16T21:36:28.709Z,11.60
2022-11-16T21:38:55.735Z,11.00
2022-11-16T21:41:24.730Z,11.00
2022-11-16T21:43:51.562Z,11.20
2022-11-16T21:46:24.765Z,11.00
2022-11-16T21:48:52.843Z,10.70
2022-11-16T21:51:21.669Z,11.30
2022-11-16T21:53:48.782Z,10.80
2022-11-16T21:56:17.698Z,10.60
2022-11-16T21:58:44.953Z,11.10
2022-11-16T22:01:12.918Z,11.00
2022-11-16T22:03:40.234Z,11.00
2022-11-16T22:06:26.862Z,10.70
2022-11-16T22:08:53.529Z,10.70
2022-11-16T22:11:22.270Z,11.30
2022-11-16T22:13:50.067Z,11.10
2022-11-16T22:16:19.051Z,10.90
2022-11-16T22:18:45.908Z,11.00
2022-11-16T22:21:12.823Z,10.90
2022-11-16T22:23:40.021Z,11.10
2022-11-16T22:26:09.210Z,11.00
2022-11-16T22:28:37.466Z,11.10
2022-11-16T22:31:12.938Z,10.60
2022-11-16T22:33:40.191Z,10.80
2022-11-16T22:36:09.347Z,10.80
2022-11-16T22:38:36.631Z,10.60
2022-11-16T22:41:04.500Z,11.10
2022-11-16T22:43:32.422Z,10.80
2022-11-16T22:46:04.757Z,10.80
2022-11-16T22:48:37.283Z,11.40
2022-11-16T22:51:04.675Z,11.00
2022-11-16T22:53:31.467Z,10.90
2022-11-16T22:56:07.575Z,10.70
2022-11-16T22:58:37.075Z,10.50
2022-11-16T23:01:07.480Z,11.00
2022-11-16T23:03:34.546Z,10.80
2022-11-16T23:06:01.985Z,10.60
2022-11-16T23:08:28.704Z,10.60
2022-11-16T23:11:24.112Z,10.40
2022-11-16T23:14:10.185Z,10.40
2022-11-16T23:16:37.507Z,10.70
2022-11-16T23:19:24.669Z,10.80
2022-11-16T23:22:09.978Z,10.50
2022-11-16T23:24:55.484Z,10.90
2022-11-16T23:27:31.364Z,10.80
2022-11-16T23:30:01.086Z,10.50
2022-11-16T23:32:28.883Z,10.50
2022-11-16T23:34:55.581Z,10.80
2022-11-16T23:37:22.401Z,10.90
2022-11-16T23:39:49.207Z,10.70
2022-11-16T23:42:34.670Z,10.60
2022-11-16T23:45:01.758Z,10.60
2022-11-16T23:47:28.506Z,11.00
2022-11-16T23:49:56.323Z,10.40
2022-11-16T23:52:22.987Z,10.30
2022-11-16T23:54:49.660Z,10.20
2022-11-16T23:57:16.472Z,10.70
2022-11-16T23:59:43.140Z,10.50
